Terminal Aerodrome Forecast
Issued by NWS

Home | Current Version | Previous Version | Text Only | Print | Product List | Glossary On
Versions: 1 2 3 4 5 6 7 8 9 10 11 12 13 14 15 16 17 18 19 20 21 22 23 24 25 26
000
FTUS44 KLIX 201125
TAFHDC
TAF
KHDC 201125Z 2012/2112 00000KT P6SM VCSH SCT110
     FM201700 14008KT P6SM BKN060 BKN090 PROB30 2021/2024 4SM -SHRA
      OVC040
     FM210300 13005KT P6SM FEW070 SCT090
     FM210800 12004KT 3SM BR SCT003
     FM210900 VRB03KT 2SM BR BKN008=

USA.gov is the U.S. government's official web portal to all federal, state and local government web resources and services.